Time;durP1;ratioP1;P1;durP2;ratioP2;P2;SDS_P1;SDS_P2;PMS_P1;PMS_P2;Temp;Humidity;BMP_temperature;BMP_pressure;BME280_temperature;BME280_humidity;BME280_pressure;Samples;Min_cycle;Max_cycle;Signal;HPM_P1;HPM_P2
2023/06/21 00:00:35;;;;;;;;;;;;;;;;;;5050729;28;19928;-61
2023/06/21 00:03:01;;;;;;;;;;;;;;;;;;5053772;28;19921;-60
2023/06/21 00:05:27;;;;;;;;;;;;;;;;;;5014054;28;20311;-60
2023/06/21 00:07:54;;;;;;;;;;;;;;;;;;5052151;28;19924;-60
2023/06/21 00:10:23;;;;;;;;;;;;;;;;;;5052761;28;19944;-61
2023/06/21 00:12:49;;;;;;;;;;;;;;;;;;5032001;28;19925;-61
2023/06/21 00:15:15;;;;;;;;;;;;;;;;;;5049921;28;19925;-61
2023/06/21 00:17:41;;;;;;;;;;;;;;;;;;5051298;28;19933;-60
2023/06/21 00:20:09;;;;;;;;;;;;;;;;;;5033193;28;19999;-61
2023/06/21 00:22:35;;;;;;;;;;;;;;;;;;5032771;28;20433;-61
2023/06/21 00:25:01;;;;;;;;;;;;;;;;;;5050370;28;19924;-62
2023/06/21 00:27:27;;;;;;;;;;;;;;;;;;5054793;28;19920;-61
2023/06/21 00:29:53;;;;;;;;;;;;;;;;;;5035121;28;20440;-61
2023/06/21 00:32:19;;;;;;;;;;;;;;;;;;5052024;28;19932;-60
2023/06/21 00:34:47;;;;;;;;;;;;;;;;;;5051146;28;19925;-61
2023/06/21 00:37:12;;;;;;;;;;;;;;;;;;5051474;28;19920;-61
2023/06/21 00:39:38;;;;;;;;;;;;;;;;;;5052618;28;19982;-61
2023/06/21 00:42:04;;;;;;;;;;;;;;;;;;5052936;28;19966;-61
2023/06/21 00:44:30;;;;;;;;;;;;;;;;;;5052841;28;19966;-61
2023/06/21 00:46:56;;;;;;;;;;;;;;;;;;5053472;28;19925;-61
2023/06/21 00:49:23;;;;;;;;;;;;;;;;;;5051840;28;20003;-62
2023/06/21 00:51:49;;;;;;;;;;;;;;;;;;5030006;28;20040;-60
2023/06/21 00:54:18;;;;;;;;;;;;;;;;;;5044306;28;20412;-60
2023/06/21 00:56:43;;;;;;;;;;;;;;;;;;5050591;28;20332;-61
2023/06/21 00:59:09;;;;;;;;;;;;;;;;;;5051177;28;19929;-60
2023/06/21 01:01:37;;;;;;;;;;;;;;;;;;5046193;28;19943;-61
2023/06/21 01:04:03;;;;;;;;;;;;;;;;;;5051109;28;19944;-60
2023/06/21 01:06:29;;;;;;;;;;;;;;;;;;5049046;28;20581;-61
2023/06/21 01:08:55;;;;;;;;;;;;;;;;;;5052538;28;20383;-61
2023/06/21 01:11:21;;;;;;;;;;;;;;;;;;5033281;28;19928;-61
2023/06/21 01:13:48;;;;;;;;;;;;;;;;;;5051925;28;19921;-62
2023/06/21 01:16:14;;;;;;;;;;;;;;;;;;5034148;28;20398;-61
2023/06/21 01:18:40;;;;;;;;;;;;;;;;;;5052078;28;19925;-61
2023/06/21 01:21:06;;;;;;;;;;;;;;;;;;5049023;28;19968;-61
2023/06/21 01:23:32;;;;;;;;;;;;;;;;;;5032827;28;19929;-61
2023/06/21 01:25:58;;;;;;;;;;;;;;;;;;5052452;28;20381;-61
2023/06/21 01:28:24;;;;;;;;;;;;;;;;;;5052014;28;20003;-62
2023/06/21 01:30:50;;;;;;;;;;;;;;;;;;5050827;28;20418;-61
2023/06/21 01:33:18;;;;;;;;;;;;;;;;;;5050826;28;19924;-61
2023/06/21 01:35:44;;;;;;;;;;;;;;;;;;5051003;28;19925;-61
2023/06/21 01:38:10;;;;;;;;;;;;;;;;;;5051317;28;19921;-61
2023/06/21 01:40:36;;;;;;;;;;;;;;;;;;5051397;28;19924;-61
2023/06/21 01:43:02;;;;;;;;;;;;;;;;;;5034318;28;19924;-61
2023/06/21 01:45:28;;;;;;;;;;;;;;;;;;5050469;28;19920;-61
2023/06/21 01:47:54;;;;;;;;;;;;;;;;;;5051074;28;20370;-61
2023/06/21 01:50:20;;;;;;;;;;;;;;;;;;5032466;28;19921;-62
2023/06/21 01:52:46;;;;;;;;;;;;;;;;;;5051731;28;20009;-61
2023/06/21 01:55:12;;;;;;;;;;;;;;;;;;5034331;28;19947;-61
2023/06/21 01:57:39;;;;;;;;;;;;;;;;;;5042950;28;19921;-61
2023/06/21 02:00:17;;;;;;;;;;;;;;;;;;5050065;28;19952;-61
2023/06/21 02:02:43;;;;;;;;;;;;;;;;;;5049259;28;20019;-61
2023/06/21 02:05:09;;;;;;;;;;;;;;;;;;5032368;28;20063;-61
2023/06/21 02:07:35;;;;;;;;;;;;;;;;;;5051463;28;20340;-61
2023/06/21 02:10:01;;;;;;;;;;;;;;;;;;5051736;28;19928;-61
2023/06/21 02:12:27;;;;;;;;;;;;;;;;;;5049645;28;19921;-61
2023/06/21 02:14:53;;;;;;;;;;;;;;;;;;5031463;28;19923;-61
2023/06/21 02:17:18;;;;;;;;;;;;;;;;;;5030999;28;20391;-61
2023/06/21 02:19:44;;;;;;;;;;;;;;;;;;5049485;28;19925;-61
2023/06/21 02:22:11;;;;;;;;;;;;;;;;;;5051178;28;19928;-61
2023/06/21 02:24:37;;;;;;;;;;;;;;;;;;5051836;28;19925;-61
2023/06/21 02:27:03;;;;;;;;;;;;;;;;;;5051535;28;19921;-61
2023/06/21 02:29:29;;;;;;;;;;;;;;;;;;5051287;28;19931;-61
2023/06/21 02:31:55;;;;;;;;;;;;;;;;;;5030526;28;19928;-61
2023/06/21 02:34:21;;;;;;;;;;;;;;;;;;5033896;28;20388;-61
2023/06/21 02:36:53;;;;;;;;;;;;;;;;;;5051237;28;20000;-61
2023/06/21 02:39:20;;;;;;;;;;;;;;;;;;5051236;28;19935;-61
2023/06/21 02:41:47;;;;;;;;;;;;;;;;;;5034117;28;19920;-61
2023/06/21 02:44:13;;;;;;;;;;;;;;;;;;5049787;28;19925;-61
2023/06/21 02:46:39;;;;;;;;;;;;;;;;;;5046630;28;20002;-62
2023/06/21 02:49:04;;;;;;;;;;;;;;;;;;5049636;28;19929;-62
2023/06/21 02:51:30;;;;;;;;;;;;;;;;;;5049879;28;20010;-61
2023/06/21 02:53:56;;;;;;;;;;;;;;;;;;5050858;28;19921;-61
2023/06/21 02:56:22;;;;;;;;;;;;;;;;;;5050995;28;19931;-61
2023/06/21 02:58:48;;;;;;;;;;;;;;;;;;5015532;28;20584;-61
2023/06/21 03:01:15;;;;;;;;;;;;;;;;;;5049211;28;20038;-60
2023/06/21 03:03:44;;;;;;;;;;;;;;;;;;5033072;28;20418;-61
2023/06/21 03:06:11;;;;;;;;;;;;;;;;;;5031769;28;20012;-62
2023/06/21 03:08:38;;;;;;;;;;;;;;;;;;5048502;28;20661;-61
2023/06/21 03:11:08;;;;;;;;;;;;;;;;;;5051188;28;19932;-61
2023/06/21 03:13:34;;;;;;;;;;;;;;;;;;5050728;28;20440;-62
2023/06/21 03:16:02;;;;;;;;;;;;;;;;;;5048880;28;20012;-60
2023/06/21 03:18:27;;;;;;;;;;;;;;;;;;5049683;28;19933;-62
2023/06/21 03:20:53;;;;;;;;;;;;;;;;;;5048817;28;19933;-61
2023/06/21 03:23:19;;;;;;;;;;;;;;;;;;5050471;28;20355;-62
2023/06/21 03:25:45;;;;;;;;;;;;;;;;;;5049312;28;19967;-61
2023/06/21 03:28:11;;;;;;;;;;;;;;;;;;5049989;28;20341;-61
2023/06/21 03:30:37;;;;;;;;;;;;;;;;;;5047421;28;19936;-60
2023/06/21 03:33:03;;;;;;;;;;;;;;;;;;5032274;28;19966;-61
2023/06/21 03:35:29;;;;;;;;;;;;;;;;;;5049536;28;19982;-61
2023/06/21 03:37:55;;;;;;;;;;;;;;;;;;5050714;28;19928;-61
2023/06/21 03:40:21;;;;;;;;;;;;;;;;;;5049201;28;19925;-62
2023/06/21 03:42:47;;;;;;;;;;;;;;;;;;5049500;28;19935;-61
2023/06/21 03:45:13;;;;;;;;;;;;;;;;;;5047342;28;20302;-62
2023/06/21 03:47:39;;;;;;;;;;;;;;;;;;5049461;28;19932;-61
2023/06/21 03:50:05;;;;;;;;;;;;;;;;;;5046742;28;19921;-61
2023/06/21 03:52:31;;;;;;;;;;;;;;;;;;5048258;28;19929;-60
2023/06/21 03:54:57;;;;;;;;;;;;;;;;;;5048211;28;20381;-60
2023/06/21 03:57:23;;;;;;;;;;;;;;;;;;5045328;28;19927;-60
2023/06/21 03:59:49;;;;;;;;;;;;;;;;;;5029608;28;19933;-61
2023/06/21 04:02:15;;;;;;;;;;;;;;;;;;5050348;28;20435;-61
2023/06/21 04:04:41;;;;;;;;;;;;;;;;;;5035814;28;20305;-61
2023/06/21 04:07:07;;;;;;;;;;;;;;;;;;5037250;28;19921;-61
2023/06/21 04:09:33;;;;;;;;;;;;;;;;;;5053189;28;20439;-61
2023/06/21 04:11:59;;;;;;;;;;;;;;;;;;5051765;28;19929;-62
2023/06/21 04:14:25;;;;;;;;;;;;;;;;;;5049097;28;19921;-61
2023/06/21 04:16:50;;;;;;;;;;;;;;;;;;5053080;28;19927;-61
2023/06/21 04:19:16;;;;;;;;;;;;;;;;;;5053428;28;19968;-61
2023/06/21 04:21:43;;;;;;;;;;;;;;;;;;5053488;28;19931;-61
2023/06/21 04:24:09;;;;;;;;;;;;;;;;;;5033244;28;20551;-61
2023/06/21 04:26:35;;;;;;;;;;;;;;;;;;5032744;28;19932;-61
2023/06/21 04:29:01;;;;;;;;;;;;;;;;;;5033646;28;19925;-61
2023/06/21 04:31:26;;;;;;;;;;;;;;;;;;5034876;28;19955;-60
2023/06/21 04:33:53;;;;;;;;;;;;;;;;;;5032324;28;19963;-61
2023/06/21 04:36:19;;;;;;;;;;;;;;;;;;5052324;28;19974;-61
2023/06/21 04:38:49;;;;;;;;;;;;;;;;;;5051809;28;19933;-61
2023/06/21 04:41:15;;;;;;;;;;;;;;;;;;5049135;28;19926;-61
2023/06/21 04:43:41;;;;;;;;;;;;;;;;;;5050445;28;20342;-62
2023/06/21 04:46:07;;;;;;;;;;;;;;;;;;5052075;28;20008;-61
2023/06/21 04:48:33;;;;;;;;;;;;;;;;;;5051867;28;20020;-61
2023/06/21 04:50:59;;;;;;;;;;;;;;;;;;5034099;28;19939;-61
2023/06/21 04:53:29;;;;;;;;;;;;;;;;;;5039029;28;19961;-60
2023/06/21 04:55:55;;;;;;;;;;;;;;;;;;5050301;28;19925;-60
2023/06/21 04:58:21;;;;;;;;;;;;;;;;;;5051596;28;19973;-60
2023/06/21 05:00:47;;;;;;;;;;;;;;;;;;5030838;28;20546;-61
2023/06/21 05:03:13;;;;;;;;;;;;;;;;;;5038358;28;19925;-61
2023/06/21 05:05:39;;;;;;;;;;;;;;;;;;5071596;22;19933;-68
2023/06/21 05:08:04;;;;;;;;;;;;;;;;;;5031626;28;19952;-68
2023/06/21 05:10:30;;;;;;;;;;;;;;;;;;5032415;28;19925;-68
2023/06/21 05:12:56;;;;;;;;;;;;;;;;;;5034435;28;19921;-68
2023/06/21 05:15:22;;;;;;;;;;;;;;;;;;5041153;28;20016;-68
2023/06/21 05:17:48;;;;;;;;;;;;;;;;;;5047120;28;19935;-68
2023/06/21 05:20:14;;;;;;;;;;;;;;;;;;5050401;28;20531;-68
2023/06/21 05:22:42;;;;;;;;;;;;;;;;;;5043048;28;19925;-69
2023/06/21 05:25:08;;;;;;;;;;;;;;;;;;5037882;28;19925;-68
2023/06/21 05:27:34;;;;;;;;;;;;;;;;;;5014807;28;20342;-69
2023/06/21 05:30:00;;;;;;;;;;;;;;;;;;5032932;28;19932;-68
2023/06/21 05:32:26;;;;;;;;;;;;;;;;;;5032324;28;19952;-67
2023/06/21 05:34:51;;;;;;;;;;;;;;;;;;5033454;28;19928;-68
2023/06/21 05:37:17;;;;;;;;;;;;;;;;;;5035899;28;19921;-69
2023/06/21 05:39:44;;;;;;;;;;;;;;;;;;5031436;28;19925;-68
2023/06/21 05:42:10;;;;;;;;;;;;;;;;;;5041484;28;20275;-69
2023/06/21 05:44:36;;;;;;;;;;;;;;;;;;5030841;28;19928;-69
2023/06/21 05:47:02;;;;;;;;;;;;;;;;;;5035743;28;19928;-68
2023/06/21 05:49:28;;;;;;;;;;;;;;;;;;5039070;28;20298;-68
2023/06/21 05:51:54;;;;;;;;;;;;;;;;;;5030406;28;19941;-68
2023/06/21 05:54:19;;;;;;;;;;;;;;;;;;5028431;28;19967;-68
2023/06/21 05:56:45;;;;;;;;;;;;;;;;;;5049041;28;19986;-68
2023/06/21 05:59:11;;;;;;;;;;;;;;;;;;5030951;28;19988;-68
2023/06/21 06:01:37;;;;;;;;;;;;;;;;;;5030889;28;19925;-68
2023/06/21 06:04:03;;;;;;;;;;;;;;;;;;5014147;28;19943;-68
2023/06/21 06:06:29;;;;;;;;;;;;;;;;;;5031866;28;19969;-68
2023/06/21 06:08:55;;;;;;;;;;;;;;;;;;5033604;28;20012;-66
2023/06/21 06:11:21;;;;;;;;;;;;;;;;;;5031756;28;19921;-66
2023/06/21 06:13:46;;;;;;;;;;;;;;;;;;5032131;28;19928;-65
2023/06/21 06:16:13;;;;;;;;;;;;;;;;;;5032097;28;19924;-66
2023/06/21 06:18:40;;;;;;;;;;;;;;;;;;5032160;28;19980;-66
2023/06/21 06:21:05;;;;;;;;;;;;;;;;;;5030742;28;19929;-66
2023/06/21 06:23:31;;;;;;;;;;;;;;;;;;5033421;28;19931;-66
2023/06/21 06:25:57;;;;;;;;;;;;;;;;;;5031269;28;19921;-66
2023/06/21 06:28:23;;;;;;;;;;;;;;;;;;5048468;28;19920;-66
2023/06/21 06:30:49;;;;;;;;;;;;;;;;;;5036043;28;19925;-66
2023/06/21 06:33:15;;;;;;;;;;;;;;;;;;5029422;28;19994;-66
2023/06/21 06:35:41;;;;;;;;;;;;;;;;;;5034486;28;19967;-66
2023/06/21 06:38:07;;;;;;;;;;;;;;;;;;5030632;28;19928;-66
2023/06/21 06:40:33;;;;;;;;;;;;;;;;;;5029515;28;19921;-66
2023/06/21 06:42:59;;;;;;;;;;;;;;;;;;5029418;28;19933;-66
2023/06/21 06:45:25;;;;;;;;;;;;;;;;;;5025666;28;19927;-66
2023/06/21 06:47:51;;;;;;;;;;;;;;;;;;5031800;28;20011;-66
2023/06/21 06:50:17;;;;;;;;;;;;;;;;;;5044804;28;19933;-66
2023/06/21 06:52:44;;;;;;;;;;;;;;;;;;5030148;28;19932;-66
2023/06/21 06:55:09;;;;;;;;;;;;;;;;;;5038927;28;19925;-66
2023/06/21 06:57:36;;;;;;;;;;;;;;;;;;5030614;28;19979;-67
2023/06/21 07:00:03;;;;;;;;;;;;;;;;;;5031086;28;19983;-66
2023/06/21 07:02:29;;;;;;;;;;;;;;;;;;5031996;28;19925;-66
2023/06/21 07:04:55;;;;;;;;;;;;;;;;;;5028824;28;20420;-67
2023/06/21 07:07:21;;;;;;;;;;;;;;;;;;5029555;28;19921;-66
2023/06/21 07:09:47;;;;;;;;;;;;;;;;;;5040927;28;19929;-66
2023/06/21 07:12:13;;;;;;;;;;;;;;;;;;5031278;28;19925;-67
2023/06/21 07:14:39;;;;;;;;;;;;;;;;;;5016088;28;19925;-66
2023/06/21 07:17:05;;;;;;;;;;;;;;;;;;5046177;28;19921;-67
2023/06/21 07:19:31;;;;;;;;;;;;;;;;;;5049636;28;20310;-66
2023/06/21 07:21:57;;;;;;;;;;;;;;;;;;5005232;28;20411;-67
2023/06/21 07:24:23;;;;;;;;;;;;;;;;;;5028894;28;19921;-65
2023/06/21 07:26:51;;;;;;;;;;;;;;;;;;5023888;28;21090;-66
2023/06/21 07:29:16;;;;;;;;;;;;;;;;;;5031037;28;20032;-66
2023/06/21 07:31:42;;;;;;;;;;;;;;;;;;5013088;28;19925;-66
2023/06/21 07:34:08;;;;;;;;;;;;;;;;;;5049909;28;20019;-63
2023/06/21 07:36:34;;;;;;;;;;;;;;;;;;5052439;28;19921;-63
2023/06/21 07:39:00;;;;;;;;;;;;;;;;;;5021944;28;19966;-62
2023/06/21 07:41:26;;;;;;;;;;;;;;;;;;5036550;28;19971;-63
2023/06/21 07:43:52;;;;;;;;;;;;;;;;;;5051299;28;19929;-63
2023/06/21 07:46:18;;;;;;;;;;;;;;;;;;5035893;28;20358;-63
2023/06/21 07:48:45;;;;;;;;;;;;;;;;;;5028268;28;19927;-62
2023/06/21 07:51:10;;;;;;;;;;;;;;;;;;5023163;28;19928;-63
2023/06/21 07:53:36;;;;;;;;;;;;;;;;;;5036295;28;19940;-62
2023/06/21 07:56:02;;;;;;;;;;;;;;;;;;5035193;28;19972;-62
2023/06/21 07:58:28;;;;;;;;;;;;;;;;;;5021428;28;19983;-63
2023/06/21 08:00:54;;;;;;;;;;;;;;;;;;5038383;28;20362;-63
2023/06/21 08:03:20;;;;;;;;;;;;;;;;;;5042188;28;19936;-62
2023/06/21 08:05:46;;;;;;;;;;;;;;;;;;5032479;28;19964;-62
2023/06/21 08:08:12;;;;;;;;;;;;;;;;;;5016420;28;19932;-62
2023/06/21 08:10:38;;;;;;;;;;;;;;;;;;5033380;28;19978;-62
2023/06/21 08:13:04;;;;;;;;;;;;;;;;;;5032990;28;20376;-62
2023/06/21 08:15:30;;;;;;;;;;;;;;;;;;5033751;28;19925;-62
2023/06/21 08:17:56;;;;;;;;;;;;;;;;;;5032003;28;20263;-63
2023/06/21 08:20:22;;;;;;;;;;;;;;;;;;5032401;28;19971;-63
2023/06/21 08:22:48;;;;;;;;;;;;;;;;;;5032621;28;19921;-63
2023/06/21 08:25:14;;;;;;;;;;;;;;;;;;5033835;28;19932;-63
2023/06/21 08:27:40;;;;;;;;;;;;;;;;;;5015864;28;20014;-62
2023/06/21 08:30:06;;;;;;;;;;;;;;;;;;5015754;28;19921;-63
2023/06/21 08:32:32;;;;;;;;;;;;;;;;;;5032375;28;19987;-63
2023/06/21 08:34:58;;;;;;;;;;;;;;;;;;5034473;28;20347;-63
2023/06/21 08:37:28;;;;;;;;;;;;;;;;;;5014893;28;19928;-63
2023/06/21 08:39:56;;;;;;;;;;;;;;;;;;5034169;28;20578;-63
2023/06/21 08:42:26;;;;;;;;;;;;;;;;;;5034378;28;19921;-63
2023/06/21 08:44:53;;;;;;;;;;;;;;;;;;5016573;28;19960;-63
2023/06/21 08:47:18;;;;;;;;;;;;;;;;;;5031645;28;19955;-63
2023/06/21 08:49:44;;;;;;;;;;;;;;;;;;5032795;28;19925;-63
2023/06/21 08:52:10;;;;;;;;;;;;;;;;;;5033012;28;20374;-66
2023/06/21 08:54:36;;;;;;;;;;;;;;;;;;5028252;28;19928;-67
2023/06/21 08:57:02;;;;;;;;;;;;;;;;;;5035006;28;19924;-66
2023/06/21 08:59:28;;;;;;;;;;;;;;;;;;5023901;28;20393;-66
2023/06/21 09:01:54;;;;;;;;;;;;;;;;;;5033586;28;19922;-66
2023/06/21 09:04:20;;;;;;;;;;;;;;;;;;5046081;28;20308;-66
2023/06/21 09:06:46;;;;;;;;;;;;;;;;;;5011834;28;19929;-66
2023/06/21 09:09:13;;;;;;;;;;;;;;;;;;5034982;28;20363;-65
2023/06/21 09:11:40;;;;;;;;;;;;;;;;;;5031721;28;19929;-65
2023/06/21 09:14:06;;;;;;;;;;;;;;;;;;5015667;28;19921;-65
2023/06/21 09:16:32;;;;;;;;;;;;;;;;;;5032385;28;19998;-64
2023/06/21 09:18:58;;;;;;;;;;;;;;;;;;5033324;28;19929;-64
2023/06/21 09:21:24;;;;;;;;;;;;;;;;;;5033354;28;19921;-64
2023/06/21 09:23:50;;;;;;;;;;;;;;;;;;5032644;28;20294;-64
2023/06/21 09:26:16;;;;;;;;;;;;;;;;;;5013595;28;19933;-64
2023/06/21 09:28:43;;;;;;;;;;;;;;;;;;5032239;28;20002;-64
2023/06/21 09:31:09;;;;;;;;;;;;;;;;;;5031970;28;20581;-64
2023/06/21 09:33:36;;;;;;;;;;;;;;;;;;5015563;28;19925;-65
2023/06/21 09:36:02;;;;;;;;;;;;;;;;;;5033405;28;19921;-65
2023/06/21 09:38:28;;;;;;;;;;;;;;;;;;5033354;28;19925;-66
2023/06/21 09:40:54;;;;;;;;;;;;;;;;;;5033276;28;20016;-65
2023/06/21 09:43:20;;;;;;;;;;;;;;;;;;5033150;28;20015;-65
2023/06/21 09:45:46;;;;;;;;;;;;;;;;;;5031634;28;20440;-65
2023/06/21 09:48:12;;;;;;;;;;;;;;;;;;5031531;28;19968;-65
2023/06/21 09:50:38;;;;;;;;;;;;;;;;;;5031437;28;19921;-66
2023/06/21 09:53:03;;;;;;;;;;;;;;;;;;5030698;28;20274;-65
2023/06/21 09:55:29;;;;;;;;;;;;;;;;;;5026528;28;19921;-65
2023/06/21 09:57:57;;;;;;;;;;;;;;;;;;5029205;28;19924;-65
2023/06/21 10:00:23;;;;;;;;;;;;;;;;;;5036495;28;19932;-65
2023/06/21 10:02:49;;;;;;;;;;;;;;;;;;5015753;28;19930;-65
2023/06/21 10:05:15;;;;;;;;;;;;;;;;;;5028338;28;19948;-65
2023/06/21 10:07:40;;;;;;;;;;;;;;;;;;5040983;28;20306;-65
2023/06/21 10:10:06;;;;;;;;;;;;;;;;;;5031958;28;20318;-65
2023/06/21 10:12:32;;;;;;;;;;;;;;;;;;5033594;28;19925;-65
2023/06/21 10:14:58;;;;;;;;;;;;;;;;;;5041520;28;19925;-65
2023/06/21 10:17:24;;;;;;;;;;;;;;;;;;5034489;28;20385;-65
2023/06/21 10:19:51;;;;;;;;;;;;;;;;;;5040590;28;20033;-65
2023/06/21 10:22:17;;;;;;;;;;;;;;;;;;5021790;28;19925;-65
2023/06/21 10:24:43;;;;;;;;;;;;;;;;;;5012603;28;19971;-65
2023/06/21 10:27:08;;;;;;;;;;;;;;;;;;5039567;28;20370;-65
2023/06/21 10:29:34;;;;;;;;;;;;;;;;;;5022308;28;19925;-65
2023/06/21 10:32:00;;;;;;;;;;;;;;;;;;5014057;28;19960;-65
2023/06/21 10:34:27;;;;;;;;;;;;;;;;;;5034797;28;20852;-65
2023/06/21 10:36:53;;;;;;;;;;;;;;;;;;5042532;28;20378;-65
2023/06/21 10:39:19;;;;;;;;;;;;;;;;;;5032059;28;19932;-65
2023/06/21 10:41:45;;;;;;;;;;;;;;;;;;5036087;28;19921;-65
2023/06/21 10:44:11;;;;;;;;;;;;;;;;;;5035770;28;19981;-63
2023/06/21 10:46:37;;;;;;;;;;;;;;;;;;5025268;28;19924;-64
2023/06/21 10:49:03;;;;;;;;;;;;;;;;;;5034071;28;19928;-63
2023/06/21 10:51:29;;;;;;;;;;;;;;;;;;5037029;28;19931;-64
2023/06/21 10:53:55;;;;;;;;;;;;;;;;;;5007289;28;20011;-64
2023/06/21 10:56:21;;;;;;;;;;;;;;;;;;5034576;28;19921;-64
2023/06/21 10:58:46;;;;;;;;;;;;;;;;;;5046698;28;20420;-64
2023/06/21 11:01:12;;;;;;;;;;;;;;;;;;5043903;28;19920;-65
2023/06/21 11:03:38;;;;;;;;;;;;;;;;;;5041310;28;19929;-65
2023/06/21 11:06:04;;;;;;;;;;;;;;;;;;5016254;28;19929;-64
2023/06/21 11:08:30;;;;;;;;;;;;;;;;;;5034519;28;20039;-65
2023/06/21 11:10:56;;;;;;;;;;;;;;;;;;5030093;28;20594;-65
2023/06/21 11:13:22;;;;;;;;;;;;;;;;;;5027406;28;19929;-64
2023/06/21 11:15:48;;;;;;;;;;;;;;;;;;5034225;28;20359;-64
2023/06/21 11:18:18;;;;;;;;;;;;;;;;;;5030261;28;19921;-64
2023/06/21 11:20:44;;;;;;;;;;;;;;;;;;5032978;28;19929;-64
2023/06/21 11:23:10;;;;;;;;;;;;;;;;;;5038563;28;20008;-67
2023/06/21 11:25:36;;;;;;;;;;;;;;;;;;5027727;28;20420;-67
2023/06/21 11:28:02;;;;;;;;;;;;;;;;;;5033858;28;19940;-67
2023/06/21 11:30:27;;;;;;;;;;;;;;;;;;5039723;28;20420;-67
2023/06/21 11:32:56;;;;;;;;;;;;;;;;;;5038402;28;19921;-66
2023/06/21 11:35:22;;;;;;;;;;;;;;;;;;5025505;28;19925;-67
2023/06/21 11:37:50;;;;;;;;;;;;;;;;;;5040880;28;19925;-67
2023/06/21 11:40:18;;;;;;;;;;;;;;;;;;5026662;28;20412;-68
2023/06/21 11:42:44;;;;;;;;;;;;;;;;;;5036807;28;19927;-66
2023/06/21 11:45:09;;;;;;;;;;;;;;;;;;5035356;28;19929;-67
2023/06/21 11:47:35;;;;;;;;;;;;;;;;;;5031550;28;19925;-66
2023/06/21 11:50:03;;;;;;;;;;;;;;;;;;5029382;28;19972;-66
2023/06/21 11:52:29;;;;;;;;;;;;;;;;;;5019493;28;20016;-67
2023/06/21 11:54:55;;;;;;;;;;;;;;;;;;5002187;28;20000;-67
2023/06/21 11:57:21;;;;;;;;;;;;;;;;;;5012795;28;19928;-66
2023/06/21 11:59:47;;;;;;;;;;;;;;;;;;5034861;28;19932;-67
2023/06/21 12:02:31;;;;;;;;;;;;;;;;;;5010849;28;19972;-66
2023/06/21 12:04:57;;;;;;;;;;;;;;;;;;5029972;28;19921;-67
2023/06/21 12:07:22;;;;;;;;;;;;;;;;;;5030645;28;19925;-66
2023/06/21 12:09:49;;;;;;;;;;;;;;;;;;5025814;28;19924;-67
2023/06/21 12:12:15;;;;;;;;;;;;;;;;;;5004854;28;19931;-67
2023/06/21 12:14:41;;;;;;;;;;;;;;;;;;5029070;28;19921;-67
2023/06/21 12:17:07;;;;;;;;;;;;;;;;;;5024306;28;19925;-67
2023/06/21 12:19:33;;;;;;;;;;;;;;;;;;5008033;28;19928;-67
2023/06/21 12:21:58;;;;;;;;;;;;;;;;;;5040987;28;20008;-67
2023/06/21 12:24:25;;;;;;;;;;;;;;;;;;5014807;28;19928;-62
2023/06/21 12:26:51;;;;;;;;;;;;;;;;;;5035632;28;20515;-62
2023/06/21 12:29:16;;;;;;;;;;;;;;;;;;5021648;28;19933;-62
2023/06/21 12:31:43;;;;;;;;;;;;;;;;;;5028297;28;19921;-62
2023/06/21 12:34:09;;;;;;;;;;;;;;;;;;5034248;28;20409;-62
2023/06/21 12:36:35;;;;;;;;;;;;;;;;;;5012770;28;19925;-62
2023/06/21 12:39:02;;;;;;;;;;;;;;;;;;5034184;28;19925;-62
2023/06/21 12:41:28;;;;;;;;;;;;;;;;;;5034083;28;19971;-63
2023/06/21 12:43:54;;;;;;;;;;;;;;;;;;4995814;28;19972;-62
2023/06/21 12:46:20;;;;;;;;;;;;;;;;;;5034277;28;19970;-62
2023/06/21 12:48:46;;;;;;;;;;;;;;;;;;5033466;28;19928;-62
2023/06/21 12:51:12;;;;;;;;;;;;;;;;;;5032536;28;20374;-62
2023/06/21 12:53:38;;;;;;;;;;;;;;;;;;5016175;28;20012;-62
2023/06/21 12:56:04;;;;;;;;;;;;;;;;;;5033816;28;19925;-62
2023/06/21 12:58:30;;;;;;;;;;;;;;;;;;5015478;28;19925;-62
2023/06/21 13:00:56;;;;;;;;;;;;;;;;;;5032300;28;19978;-64
2023/06/21 13:03:22;;;;;;;;;;;;;;;;;;5032465;28;20335;-64
2023/06/21 13:05:48;;;;;;;;;;;;;;;;;;5029093;28;19930;-64
2023/06/21 13:08:14;;;;;;;;;;;;;;;;;;5033573;28;19925;-64
2023/06/21 13:10:40;;;;;;;;;;;;;;;;;;5027454;28;20302;-64
2023/06/21 13:13:06;;;;;;;;;;;;;;;;;;5031538;28;19921;-64
2023/06/21 13:15:32;;;;;;;;;;;;;;;;;;5017602;28;19921;-64
2023/06/21 13:17:57;;;;;;;;;;;;;;;;;;5034534;28;19931;-64
2023/06/21 13:20:23;;;;;;;;;;;;;;;;;;5008498;28;19957;-64
2023/06/21 13:22:49;;;;;;;;;;;;;;;;;;5031382;28;20022;-65
2023/06/21 13:25:15;;;;;;;;;;;;;;;;;;5029243;28;20113;-65
2023/06/21 13:27:41;;;;;;;;;;;;;;;;;;5033572;28;19987;-61
2023/06/21 13:30:07;;;;;;;;;;;;;;;;;;5013814;28;19925;-61
2023/06/21 13:32:36;;;;;;;;;;;;;;;;;;5043985;28;19921;-61
2023/06/21 13:35:02;;;;;;;;;;;;;;;;;;5030055;28;19921;-60
2023/06/21 13:37:28;;;;;;;;;;;;;;;;;;5034649;28;20542;-59
2023/06/21 13:39:53;;;;;;;;;;;;;;;;;;5031581;28;19925;-59
2023/06/21 13:42:19;;;;;;;;;;;;;;;;;;5032359;28;19921;-60
2023/06/21 13:44:45;;;;;;;;;;;;;;;;;;5028596;28;19925;-60
2023/06/21 13:47:11;;;;;;;;;;;;;;;;;;5038958;28;20560;-60
2023/06/21 13:49:37;;;;;;;;;;;;;;;;;;5035401;28;19932;-60
2023/06/21 13:52:03;;;;;;;;;;;;;;;;;;5032632;28;19925;-60
2023/06/21 13:54:29;;;;;;;;;;;;;;;;;;5044890;28;19921;-60
2023/06/21 13:56:55;;;;;;;;;;;;;;;;;;5032141;28;19929;-60
2023/06/21 13:59:21;;;;;;;;;;;;;;;;;;5033506;28;20366;-67
2023/06/21 14:01:47;;;;;;;;;;;;;;;;;;5034632;28;19921;-67
2023/06/21 14:04:13;;;;;;;;;;;;;;;;;;5038122;28;19925;-67
2023/06/21 14:06:39;;;;;;;;;;;;;;;;;;5033490;28;20629;-66
2023/06/21 14:09:05;;;;;;;;;;;;;;;;;;5049272;28;19978;-66
2023/06/21 14:11:31;;;;;;;;;;;;;;;;;;5013333;28;19924;-66
2023/06/21 14:13:57;;;;;;;;;;;;;;;;;;5035810;28;19939;-60
2023/06/21 14:16:23;;;;;;;;;;;;;;;;;;5033269;28;19920;-59
2023/06/21 14:18:49;;;;;;;;;;;;;;;;;;5013607;28;19925;-59
2023/06/21 14:21:15;;;;;;;;;;;;;;;;;;5030543;28;19928;-59
2023/06/21 14:23:41;;;;;;;;;;;;;;;;;;5037410;28;20393;-59
2023/06/21 14:26:07;;;;;;;;;;;;;;;;;;5043052;28;20413;-60
2023/06/21 14:28:33;;;;;;;;;;;;;;;;;;5023184;28;19921;-60
2023/06/21 14:30:59;;;;;;;;;;;;;;;;;;5014290;28;19976;-60
2023/06/21 14:33:25;;;;;;;;;;;;;;;;;;5044098;28;19925;-60
2023/06/21 14:35:51;;;;;;;;;;;;;;;;;;5029840;28;19943;-60
2023/06/21 14:38:17;;;;;;;;;;;;;;;;;;5040943;28;19961;-60
2023/06/21 14:40:43;;;;;;;;;;;;;;;;;;5038254;28;19925;-60
2023/06/21 14:43:08;;;;;;;;;;;;;;;;;;5037203;28;20618;-60
2023/06/21 14:45:34;;;;;;;;;;;;;;;;;;5034493;28;19928;-60
2023/06/21 14:48:00;;;;;;;;;;;;;;;;;;5012450;28;20349;-60
2023/06/21 14:50:27;;;;;;;;;;;;;;;;;;5016286;28;20375;-59
2023/06/21 14:52:53;;;;;;;;;;;;;;;;;;5033162;28;19925;-60
2023/06/21 14:55:18;;;;;;;;;;;;;;;;;;5013588;28;19935;-59
2023/06/21 14:57:44;;;;;;;;;;;;;;;;;;5037346;28;19927;-60
2023/06/21 15:00:10;;;;;;;;;;;;;;;;;;5034589;28;20044;-59
2023/06/21 15:02:37;;;;;;;;;;;;;;;;;;5019344;28;20312;-60
2023/06/21 15:05:03;;;;;;;;;;;;;;;;;;5029820;28;20340;-60
2023/06/21 15:07:29;;;;;;;;;;;;;;;;;;5039104;28;19925;-60
2023/06/21 15:09:55;;;;;;;;;;;;;;;;;;5017963;28;20027;-60
2023/06/21 15:12:20;;;;;;;;;;;;;;;;;;5041103;28;20263;-60
2023/06/21 15:14:46;;;;;;;;;;;;;;;;;;5043427;28;19936;-60
2023/06/21 15:17:12;;;;;;;;;;;;;;;;;;5031633;28;19939;-59
2023/06/21 15:19:38;;;;;;;;;;;;;;;;;;5029757;28;20308;-60
2023/06/21 15:22:04;;;;;;;;;;;;;;;;;;5026756;28;19975;-60
2023/06/21 15:24:30;;;;;;;;;;;;;;;;;;5032952;28;19921;-59
2023/06/21 15:26:56;;;;;;;;;;;;;;;;;;5014428;28;19929;-60
2023/06/21 15:29:22;;;;;;;;;;;;;;;;;;5043027;28;19925;-60
2023/06/21 15:31:48;;;;;;;;;;;;;;;;;;5032129;28;20409;-60
2023/06/21 15:34:14;;;;;;;;;;;;;;;;;;5031440;28;19921;-62
2023/06/21 15:36:40;;;;;;;;;;;;;;;;;;5032248;28;19992;-67
2023/06/21 15:39:06;;;;;;;;;;;;;;;;;;5016424;28;19979;-67
2023/06/21 15:41:32;;;;;;;;;;;;;;;;;;5030385;28;19964;-67
2023/06/21 15:43:58;;;;;;;;;;;;;;;;;;5031516;28;20286;-66
2023/06/21 15:46:24;;;;;;;;;;;;;;;;;;5034083;28;20016;-67
2023/06/21 15:48:50;;;;;;;;;;;;;;;;;;5038246;28;20397;-67
2023/06/21 15:51:16;;;;;;;;;;;;;;;;;;5031307;28;19921;-66
2023/06/21 15:53:43;;;;;;;;;;;;;;;;;;5031501;28;19925;-67
2023/06/21 15:56:08;;;;;;;;;;;;;;;;;;5013984;28;20371;-67
2023/06/21 15:58:34;;;;;;;;;;;;;;;;;;5034279;28;19921;-67
2023/06/21 16:01:00;;;;;;;;;;;;;;;;;;5040012;28;19924;-67
2023/06/21 16:03:26;;;;;;;;;;;;;;;;;;5021260;28;19928;-67
2023/06/21 16:05:53;;;;;;;;;;;;;;;;;;5038043;28;19929;-67
2023/06/21 16:08:19;;;;;;;;;;;;;;;;;;5047695;28;19929;-67
2023/06/21 16:10:45;;;;;;;;;;;;;;;;;;5045916;28;20376;-67
2023/06/21 16:13:11;;;;;;;;;;;;;;;;;;5019789;28;20008;-67
2023/06/21 16:15:37;;;;;;;;;;;;;;;;;;5036302;28;19935;-67
2023/06/21 16:18:03;;;;;;;;;;;;;;;;;;5032117;28;19932;-66
2023/06/21 16:20:30;;;;;;;;;;;;;;;;;;5029382;28;19925;-67
2023/06/21 16:22:56;;;;;;;;;;;;;;;;;;5032036;28;19932;-66
2023/06/21 16:25:22;;;;;;;;;;;;;;;;;;5050976;28;19941;-67
2023/06/21 16:27:48;;;;;;;;;;;;;;;;;;5047425;28;19921;-68
2023/06/21 16:30:14;;;;;;;;;;;;;;;;;;5014714;28;19971;-67
2023/06/21 16:32:40;;;;;;;;;;;;;;;;;;5030960;28;19971;-68
2023/06/21 16:35:05;;;;;;;;;;;;;;;;;;5034709;28;20359;-68
2023/06/21 16:37:31;;;;;;;;;;;;;;;;;;5041967;28;20374;-68